7NK4 weather

Ridge Road West Airport
Spenceport, New York, United States

Public forecast

Using degrees Fahrenheit for public forecast. Weather courtesy of forecast.io.

Closest aviation weather report (METAR) to Ridge Road West Airport

Closest report is Greater Rochester International Airport, 8.7 nm (16.1 km) SE. Retrieved 2020/06/03 14:54 UTC (27 minutes ago):

KROC 031454Z 28007KT 10SM -RA FEW020 SCT095 OVC120 19/17 A2963 RMK AO2 RAE26B47 SLP035 P0000 60003 T01940167 56023

Closest aviation forecast (TAF) to Ridge Road West Airport

Closest forecast is Greater Rochester International Airport, 8.7 nm (16.1 km) SE. Retrieved 2020/06/03 12:22 UTC (3 hours ago):

TAF KROC 031120Z 0312/0412 27007KT 6SM BR BKN050 TEMPO 0312/0314 4SM -SHRA OVC025 FM032000 28010G18KT P6SM SCT090 FM032300 27009KT P6SM SCT070 FM040900 24004KT P6SM FEW250 FM041100 21004KT P6SM FEW250